Albion, Michigan
Current Conditions -  °F | °C
As of 12:33 PM on Friday 24 Oct 2014 (Local Time) from KRMY Reporting Station
Overcast Overcast  
Wind Chill: 55°   Ceiling: 2300
Heat Index: 55°   Visibility: 10mi
Dew Point: 46°   Wind: 3mph
Humidity: 72%   Direction: 200°SSW
Pressure: 30.06"   Gusts: NA
Location:  42.25°N, 84.75°W
Report Text: KRMY 241633Z AUTO 20003KT 10SM OVC023 13/08 A3006 RMK AO2 T01260076
Loading
Personal Weather Stations






























Interactive Weather Map New forecast layout! Learn more

10-Day Weather Forecast

Advertisements
Track Severe Weather on mobile